Hauptseite
METAR-TAF:

METAR-TAF

Flughäfen :

Flughafen Huesca-Pirineos

Huesca, Spanien

Breite: 42-04-32N, Länge: 0-18-58W, Höhe: 539 m

Beobachtung

Neuester Wetterbericht von vor 22 Minuten, um 06:00 UTC
Wind 9 kt aus West
Temperatur 2°C
Luftfeuchtigkeit 93%
Luftdruck 1009 hPa
Sichtweite 10 km oder mehr

METAR: LEHC 170600Z AUTO 26009KT 9999 NCD 02/01 Q1009

Zeit: 07:22 (06:22 UTC)

Prognose

Neuester Wetterbericht von vor 4 Stunden und 22 Minuten, um 02:00 UTC
Gültige Prognose vom 17 um 03 UTC bis 18 um 03 UTC
Wind 9 kt aus West
Sichtweite 10 km oder mehr
Aufgelockert bewölkt in der Höhe von 3000 ft
Wahrscheinlichkeit 40% :
Zeitweise
vom 17 um 12 UTC bis 17 um 23 UTC
Durchbrochene Bewölkung in der Höhe von 4000 ft
Regen
Übergehend zu
vom 17 um 17 UTC bis 17 um 19 UTC
Wind 5 kt aus West/Nordwest

TAF: LEHC 170200Z 1703/1803 28009KT 9999 SCT030 TX10/1713Z TN03/1706Z PROB40 TEMPO 1712/1723 RA BKN040 BECMG 1717/1719 30005KT

Wetterbeobachtungen und Prognosen von mehr als 4000 Flughäfen (METAR und TAF Bericht).

Die verfügbaren Stationen werden durch gelbe und rote Markierungen auf der Karte dargestellt.

Führen Sie die Maus auf sie, um den Namen der Station zu sehen.

Darauf klicken, um die Beobachtung von Wetterbeobachtungen und Prognosen zu sehen.

Um die Karte zu ändern : klicken Sie auf den grünen Tasten mit einem schwarzen Kreuz Zum Vergrößern, auf den grünen Button mit einem Gedankenstrich zu verkleinern, oder auf die grünen Pfeile für benachbarte Karten.


METAR-TAF: